Time;durP1;ratioP1;P1;durP2;ratioP2;P2;SDS_P1;SDS_P2;PMS_P1;PMS_P2;Temp;Humidity;BMP_temperature;BMP_pressure;BME280_temperature;BME280_humidity;BME280_pressure;Samples;Min_cycle;Max_cycle;Signal;HPM_P1;HPM_P2
2023/07/10 00:00:46;;;;;;;3.25;2.50;;;;;;;20.42;100.00;98164.16;1223424;75;2929694;-70
2023/07/10 00:03:19;;;;;;;5.90;2.55;;;;;;;20.36;100.00;98166.28;1223903;75;2921396;-65
2023/07/10 00:05:51;;;;;;;5.00;3.85;;;;;;;20.17;100.00;98160.75;1223122;75;2932893;-69
2023/07/10 00:08:24;;;;;;;4.70;3.40;;;;;;;20.15;100.00;98163.31;1221150;75;2980808;-66
2023/07/10 00:10:57;;;;;;;3.75;3.35;;;;;;;20.28;100.00;98163.38;1223861;75;2924143;-69
2023/07/10 00:13:33;;;;;;;3.40;3.00;;;;;;;20.24;100.00;98159.41;1223555;75;2925227;-69
2023/07/10 00:16:15;;;;;;;3.75;3.35;;;;;;;20.22;100.00;98171.03;1224120;75;2926003;-69
2023/07/10 00:18:47;;;;;;;4.65;3.90;;;;;;;20.30;100.00;98169.16;1222511;75;2933266;-67
2023/07/10 00:21:21;;;;;;;5.70;3.05;;;;;;;20.35;100.00;98165.53;1223078;75;2922561;-68
2023/07/10 00:23:53;;;;;;;3.70;3.20;;;;;;;20.15;100.00;98166.09;1223304;75;2927696;-68
2023/07/10 00:26:29;;;;;;;4.25;3.10;;;;;;;20.29;100.00;98166.91;1223590;75;2923735;-68
2023/07/10 00:29:14;;;;;;;3.45;2.90;;;;;;;20.37;100.00;98164.97;1222531;75;2925724;-68
2023/07/10 00:31:47;;;;;;;2.95;2.50;;;;;;;20.40;100.00;98164.69;1224447;75;2936212;-69
2023/07/10 00:34:25;;;;;;;3.05;2.50;;;;;;;20.37;100.00;98170.53;1224641;75;2921739;-69
2023/07/10 00:36:57;;;;;;;3.10;2.60;;;;;;;20.39;100.00;98165.94;1224342;75;2926695;-68
2023/07/10 00:39:33;;;;;;;2.65;2.40;;;;;;;20.33;100.00;98154.19;1222706;75;2931084;-69
2023/07/10 00:42:14;;;;;;;2.60;2.40;;;;;;;20.23;100.00;98161.44;1223977;75;2925779;-68
2023/07/10 00:44:54;;;;;;;2.30;2.10;;;;;;;20.22;100.00;98162.69;1221164;75;3105088;-66
2023/07/10 00:47:35;;;;;;;2.80;2.30;;;;;;;20.24;100.00;98165.69;1223774;75;2928167;-68
2023/07/10 00:50:16;;;;;;;2.75;2.40;;;;;;;20.21;100.00;98169.56;1222627;75;2926163;-69
2023/07/10 00:52:52;;;;;;;2.85;2.40;;;;;;;20.17;100.00;98158.72;1223439;75;2921929;-70
2023/07/10 00:55:32;;;;;;;4.15;2.60;;;;;;;20.14;100.00;98157.00;1223276;75;2923236;-68
2023/07/10 00:58:19;;;;;;;3.35;3.00;;;;;;;19.99;100.00;98162.31;1223188;75;2929813;-67
2023/07/10 01:01:13;;;;;;;3.15;2.70;;;;;;;20.11;100.00;98151.78;1223083;75;2925542;-68
2023/07/10 01:03:48;;;;;;;3.00;2.30;;;;;;;20.08;100.00;98161.88;1223553;75;2933597;-68
2023/07/10 01:06:24;;;;;;;2.55;2.35;;;;;;;20.09;100.00;98166.19;1223887;75;2926471;-66
2023/07/10 01:09:01;;;;;;;2.75;2.25;;;;;;;20.05;100.00;98167.78;1223021;75;2930113;-67
2023/07/10 01:11:34;;;;;;;2.65;2.30;;;;;;;20.03;100.00;98168.28;1222859;75;2930732;-69
2023/07/10 01:14:11;;;;;;;3.10;2.80;;;;;;;19.88;100.00;98165.25;1223799;75;2926529;-68
2023/07/10 01:16:46;;;;;;;2.65;2.45;;;;;;;19.95;100.00;98170.94;1223218;75;2929800;-68
2023/07/10 01:19:25;;;;;;;2.55;2.25;;;;;;;19.99;100.00;98162.31;1223023;75;2925022;-67
2023/07/10 01:22:00;;;;;;;3.15;2.85;;;;;;;19.81;100.00;98168.63;1223598;75;2925859;-69
2023/07/10 01:24:34;;;;;;;3.00;2.70;;;;;;;19.87;100.00;98158.94;1223402;75;2922758;-68
2023/07/10 01:27:11;;;;;;;4.35;3.70;;;;;;;19.70;100.00;98169.50;1223373;75;2912499;-68
2023/07/10 01:29:48;;;;;;;3.55;3.05;;;;;;;19.82;100.00;98161.78;1223310;75;2928968;-67
2023/07/10 01:32:22;;;;;;;2.65;2.45;;;;;;;19.76;100.00;98153.53;1221768;75;2930501;-69
2023/07/10 01:35:01;;;;;;;3.05;2.45;;;;;;;19.82;100.00;98159.78;1223346;75;2925494;-69
2023/07/10 01:37:37;;;;;;;2.85;2.40;;;;;;;19.81;100.00;98158.25;1223105;75;2934129;-69
2023/07/10 01:40:17;;;;;;;2.80;2.60;;;;;;;19.76;100.00;98154.28;1222419;75;2923010;-67
2023/07/10 01:42:50;;;;;;;2.40;2.20;;;;;;;19.76;100.00;98157.06;1223244;75;2925091;-69
2023/07/10 01:45:23;;;;;;;2.45;2.05;;;;;;;19.75;100.00;98146.50;1222725;75;2928785;-67
2023/07/10 01:47:55;;;;;;;2.50;2.30;;;;;;;19.66;100.00;98157.94;1223344;75;2927606;-69
2023/07/10 01:50:28;;;;;;;3.00;2.50;;;;;;;19.56;100.00;98160.34;1222449;75;2933434;-67
2023/07/10 01:53:03;;;;;;;5.05;2.50;;;;;;;19.60;100.00;98149.66;1222747;75;2928650;-69
2023/07/10 01:55:43;;;;;;;3.65;2.40;;;;;;;19.49;100.00;98156.13;1223523;75;2926685;-69
2023/07/10 01:58:16;;;;;;;3.05;2.60;;;;;;;19.49;100.00;98153.38;1223434;75;2926599;-69
2023/07/10 02:00:49;;;;;;;2.70;2.40;;;;;;;19.54;100.00;98157.34;1220967;75;3048322;-69
2023/07/10 02:03:21;;;;;;;3.40;2.80;;;;;;;19.46;100.00;98150.88;1223245;75;2925181;-69
2023/07/10 02:05:54;;;;;;;3.85;3.10;;;;;;;19.47;100.00;98155.16;1223058;75;2926666;-68
2023/07/10 02:08:29;;;;;;;3.20;2.50;;;;;;;19.51;100.00;98161.91;1222856;75;2936505;-70
2023/07/10 02:11:02;;;;;;;2.75;2.20;;;;;;;19.53;100.00;98158.59;1223586;75;2923969;-69
2023/07/10 02:13:34;;;;;;;3.45;2.75;;;;;;;19.31;100.00;98167.97;1222544;75;2925287;-70
2023/07/10 02:16:08;;;;;;;2.70;2.40;;;;;;;19.44;100.00;98161.78;1224174;75;2926058;-68
2023/07/10 02:18:40;;;;;;;3.15;2.40;;;;;;;19.45;100.00;98161.22;1222670;75;2929188;-68
2023/07/10 02:21:13;;;;;;;2.85;2.35;;;;;;;19.35;100.00;98155.28;1223670;75;2925932;-67
2023/07/10 02:23:48;;;;;;;2.35;2.15;;;;;;;19.27;100.00;98153.66;1223712;75;2927325;-69
2023/07/10 02:26:21;;;;;;;3.70;3.30;;;;;;;18.97;100.00;98154.47;1222513;75;2927100;-69
2023/07/10 02:28:54;;;;;;;3.40;3.10;;;;;;;19.22;100.00;98154.44;1223196;75;2926542;-67
2023/07/10 02:31:27;;;;;;;3.05;2.60;;;;;;;19.19;100.00;98161.78;1223680;75;2921562;-68
2023/07/10 02:34:00;;;;;;;4.20;2.85;;;;;;;19.23;100.00;98151.16;1223340;75;2931466;-68
2023/07/10 02:36:33;;;;;;;2.60;2.20;;;;;;;19.20;100.00;98148.69;1222536;75;2932272;-66
2023/07/10 02:39:09;;;;;;;2.50;2.30;;;;;;;19.11;100.00;98152.56;1223264;75;2930368;-68
2023/07/10 02:41:41;;;;;;;3.05;2.75;;;;;;;19.12;100.00;98154.81;1223442;75;2924914;-70
2023/07/10 02:44:14;;;;;;;4.35;3.55;;;;;;;19.03;100.00;98160.72;1223143;75;2933613;-68
2023/07/10 02:46:46;;;;;;;3.25;2.75;;;;;;;19.20;100.00;98157.03;1223944;75;2924313;-68
2023/07/10 02:49:19;;;;;;;3.70;3.00;;;;;;;19.07;100.00;98157.66;1222719;75;2922306;-68
2023/07/10 02:51:51;;;;;;;3.65;3.35;;;;;;;18.96;100.00;98150.22;1223283;75;2929521;-69
2023/07/10 02:54:27;;;;;;;3.30;2.95;;;;;;;18.82;100.00;98149.34;1223406;75;2924504;-68
2023/07/10 02:56:59;;;;;;;3.65;3.10;;;;;;;18.91;100.00;98154.53;1224843;75;2925170;-70
2023/07/10 02:59:32;;;;;;;3.75;3.20;;;;;;;19.00;100.00;98147.13;1222810;75;2937560;-67
2023/07/10 03:02:04;;;;;;;4.20;2.90;;;;;;;19.03;100.00;98148.88;1224237;75;2925405;-68
2023/07/10 03:04:37;;;;;;;3.00;2.70;;;;;;;18.96;100.00;98147.44;1224160;75;2920994;-69
2023/07/10 03:07:10;;;;;;;2.85;2.50;;;;;;;19.02;100.00;98139.78;1224165;75;2930498;-67
2023/07/10 03:09:45;;;;;;;3.15;2.75;;;;;;;18.90;100.00;98146.72;1223377;75;2929092;-66
2023/07/10 03:12:18;;;;;;;3.75;3.00;;;;;;;18.83;100.00;98142.53;1224383;75;2927338;-66
2023/07/10 03:14:51;;;;;;;3.30;2.80;;;;;;;18.65;100.00;98132.84;1222982;75;2929334;-68
2023/07/10 03:17:23;;;;;;;3.60;3.10;;;;;;;18.83;100.00;98133.44;1224365;75;2911840;-67
2023/07/10 03:19:56;;;;;;;3.00;2.50;;;;;;;18.85;100.00;98130.91;1223477;75;2967246;-67
2023/07/10 03:22:29;;;;;;;3.00;2.70;;;;;;;18.70;100.00;98136.84;1224316;75;2926798;-69
2023/07/10 03:25:04;;;;;;;2.50;2.20;;;;;;;18.86;100.00;98135.94;1223022;75;2922924;-67
2023/07/10 03:27:36;;;;;;;3.10;2.60;;;;;;;18.83;100.00;98145.31;1223235;75;2922849;-68
2023/07/10 03:30:11;;;;;;;4.10;2.50;;;;;;;18.81;100.00;98138.75;1222588;75;2920988;-65
2023/07/10 03:32:44;;;;;;;3.15;2.55;;;;;;;18.84;100.00;98140.50;1223138;75;2922839;-68
2023/07/10 03:35:17;;;;;;;2.90;2.60;;;;;;;18.81;100.00;98135.97;1223287;75;2924207;-67
2023/07/10 03:37:49;;;;;;;2.90;2.40;;;;;;;18.79;100.00;98136.53;1223142;75;2936814;-67
2023/07/10 03:40:24;;;;;;;2.85;2.50;;;;;;;18.80;100.00;98140.78;1222191;75;2928286;-65
2023/07/10 03:42:57;;;;;;;3.00;2.70;;;;;;;18.84;100.00;98127.38;1223419;75;2923521;-67
2023/07/10 03:45:31;;;;;;;2.60;2.20;;;;;;;18.84;100.00;98138.47;1223029;75;2930922;-68
2023/07/10 03:48:04;;;;;;;2.75;2.25;;;;;;;18.81;100.00;98125.66;1223542;75;2933880;-68
2023/07/10 03:50:38;;;;;;;3.60;3.00;;;;;;;18.71;100.00;98138.31;1223694;75;2927776;-66
2023/07/10 03:53:11;;;;;;;2.60;2.40;;;;;;;18.87;100.00;98136.69;1223133;75;2921734;-69
2023/07/10 03:55:55;;;;;;;3.40;2.50;;;;;;;18.89;100.00;98139.69;1223851;75;2918653;-69
2023/07/10 03:58:30;;;;;;;3.15;2.60;;;;;;;18.93;100.00;98138.13;1222849;75;2927740;-68
2023/07/10 04:01:04;;;;;;;4.85;2.60;;;;;;;18.96;100.00;98138.38;1223274;75;2920075;-66
2023/07/10 04:03:41;;;;;;;4.25;3.20;;;;;;;18.68;100.00;98145.66;1223125;75;2932527;-70
2023/07/10 04:06:18;;;;;;;4.15;3.45;;;;;;;18.68;100.00;98142.16;1222194;75;2928900;-66
2023/07/10 04:08:51;;;;;;;4.55;3.90;;;;;;;18.48;100.00;98146.88;1221847;75;2940713;-68
2023/07/10 04:11:27;;;;;;;5.50;4.70;;;;;;;18.64;100.00;98150.75;1222639;75;2930820;-66
2023/07/10 04:14:00;;;;;;;5.60;3.80;;;;;;;18.90;100.00;98157.84;1222401;75;2923850;-69
2023/07/10 04:16:32;;;;;;;4.85;3.95;;;;;;;18.95;100.00;98159.78;1222706;75;2925445;-68
2023/07/10 04:19:05;;;;;;;3.15;2.70;;;;;;;19.01;100.00;98162.53;1223120;75;2919107;-69
2023/07/10 04:21:38;;;;;;;3.05;2.65;;;;;;;19.05;100.00;98160.97;1223761;75;2921689;-70
2023/07/10 04:24:11;;;;;;;5.45;2.85;;;;;;;19.08;100.00;98159.91;1223170;75;2926303;-66
2023/07/10 04:26:47;;;;;;;6.05;3.80;;;;;;;18.88;100.00;98163.91;1222780;75;2937881;-69
2023/07/10 04:29:21;;;;;;;4.55;3.70;;;;;;;18.88;100.00;98163.16;1223197;75;2925642;-70
2023/07/10 04:31:54;;;;;;;4.75;3.75;;;;;;;18.88;100.00;98169.47;1221941;75;2930248;-70
2023/07/10 04:34:26;;;;;;;3.85;3.45;;;;;;;19.04;100.00;98173.31;1223803;75;2923303;-68
2023/07/10 04:36:59;;;;;;;3.50;3.10;;;;;;;18.97;100.00;98173.91;1222579;75;2931804;-67
2023/07/10 04:39:32;;;;;;;3.65;3.30;;;;;;;19.13;100.00;98177.78;1222051;75;2930824;-68
2023/07/10 04:42:08;;;;;;;4.65;3.95;;;;;;;19.11;100.00;98174.75;1223503;75;2923799;-68
2023/07/10 04:44:41;;;;;;;5.20;4.60;;;;;;;19.05;100.00;98168.50;1223488;75;2921965;-70
2023/07/10 04:47:14;;;;;;;8.65;7.75;;;;;;;19.06;100.00;98168.00;1224389;75;2920270;-68
2023/07/10 04:49:46;;;;;;;7.50;6.15;;;;;;;19.24;100.00;98172.09;1224555;75;2928499;-69
2023/07/10 04:52:19;;;;;;;7.05;6.35;;;;;;;19.44;100.00;98170.84;1224951;75;2926790;-69
2023/07/10 04:54:51;;;;;;;7.00;6.20;;;;;;;19.56;100.00;98169.44;1223529;75;2927712;-68
2023/07/10 04:57:26;;;;;;;5.60;5.05;;;;;;;19.63;100.00;98175.66;1223641;75;2924978;-69
2023/07/10 04:59:59;;;;;;;6.10;5.50;;;;;;;19.65;100.00;98182.19;1223596;75;2930479;-68
2023/07/10 05:02:32;;;;;;;7.15;4.80;;;;;;;19.71;100.00;98187.69;1223594;75;2928160;-69
2023/07/10 05:05:04;;;;;;;4.40;4.00;;;;;;;19.93;100.00;98175.53;1223416;75;2931242;-68
2023/07/10 05:07:37;;;;;;;4.95;3.60;;;;;;;20.06;100.00;98178.38;1224571;75;2921496;-67
2023/07/10 05:10:11;;;;;;;6.55;5.95;;;;;;;20.15;100.00;98164.06;1223369;75;2926172;-71
2023/07/10 05:12:46;;;;;;;7.35;6.60;;;;;;;20.26;100.00;98171.50;1222981;75;2928990;-70
2023/07/10 05:15:19;;;;;;;11.10;10.00;;;;;;;20.33;100.00;98168.09;1223924;75;2924376;-69
2023/07/10 05:17:53;;;;;;;8.60;7.65;;;;;;;20.54;100.00;98159.91;1223627;75;2922989;-67
2023/07/10 05:20:25;;;;;;;7.25;6.55;;;;;;;20.62;100.00;98162.84;1223163;75;2920373;-69
2023/07/10 05:22:58;;;;;;;6.20;5.55;;;;;;;20.73;100.00;98168.19;1224609;75;2928013;-69
2023/07/10 05:25:30;;;;;;;7.45;5.90;;;;;;;20.77;100.00;98168.63;1224309;75;2922313;-67
2023/07/10 05:28:06;;;;;;;12.30;7.35;;;;;;;20.78;100.00;98161.78;1223501;75;2932375;-70
2023/07/10 05:30:39;;;;;;;7.60;6.40;;;;;;;20.98;100.00;98168.00;1223445;75;2930104;-68
2023/07/10 05:33:12;;;;;;;5.85;5.00;;;;;;;21.17;100.00;98162.34;1223768;75;2928496;-69
2023/07/10 05:35:56;;;;;;;4.50;4.05;;;;;;;21.26;100.00;98159.88;1222624;75;2922648;-67
2023/07/10 05:38:32;;;;;;;7.25;6.15;;;;;;;21.09;100.00;98164.25;1223834;75;2922359;-68
2023/07/10 05:41:06;;;;;;;7.90;7.10;;;;;;;21.22;100.00;98158.69;1224194;75;2918587;-68
2023/07/10 05:43:41;;;;;;;6.60;5.95;;;;;;;21.47;100.00;98156.44;1224586;75;2924805;-70
2023/07/10 05:46:15;;;;;;;9.95;7.05;;;;;;;21.49;100.00;98159.44;1223567;75;2931779;-69
2023/07/10 05:48:47;;;;;;;8.60;7.10;;;;;;;21.46;100.00;98160.50;1223345;75;2927498;-66
2023/07/10 05:51:20;;;;;;;7.50;6.50;;;;;;;21.66;100.00;98156.28;1224420;75;2920579;-70
2023/07/10 05:53:53;;;;;;;6.85;5.80;;;;;;;21.86;100.00;98152.81;1223405;75;2960951;-69
2023/07/10 05:56:25;;;;;;;6.20;5.25;;;;;;;21.94;100.00;98150.09;1223544;75;2928342;-70
2023/07/10 05:59:01;;;;;;;6.80;5.45;;;;;;;22.11;100.00;98152.47;1222771;75;2936412;-68
2023/07/10 06:01:33;;;;;;;7.85;5.80;;;;;;;22.16;100.00;98150.84;1223340;75;2912218;-70
2023/07/10 06:04:06;;;;;;;6.35;5.70;;;;;;;22.42;100.00;98144.41;1223175;75;2947095;-67
2023/07/10 06:06:39;;;;;;;7.20;6.10;;;;;;;22.55;100.00;98153.44;1224000;75;2948921;-68
2023/07/10 06:09:12;;;;;;;6.70;5.85;;;;;;;22.68;100.00;98144.25;1222134;75;2929240;-68
2023/07/10 06:11:44;;;;;;;6.30;5.70;;;;;;;22.75;100.00;98149.13;1224071;75;2925677;-66
2023/07/10 06:14:19;;;;;;;6.30;5.70;;;;;;;22.81;100.00;98139.84;1222834;75;2918792;-68
2023/07/10 06:16:52;;;;;;;11.85;6.60;;;;;;;22.87;100.00;98138.38;1221672;75;2932090;-66
2023/07/10 06:19:25;;;;;;;7.35;6.00;;;;;;;23.05;100.00;98147.09;1223210;75;2930625;-66
2023/07/10 06:22:09;;;;;;;6.60;5.90;;;;;;;23.30;99.67;98131.38;1223415;75;2923527;-66
2023/07/10 06:24:43;;;;;;;6.20;5.60;;;;;;;23.37;100.00;98127.13;1222634;75;2928824;-66
2023/07/10 06:27:15;;;;;;;5.60;5.10;;;;;;;23.45;97.59;98127.16;1223066;75;2919290;-69
2023/07/10 06:29:51;;;;;;;6.95;6.05;;;;;;;23.50;95.46;98138.19;1223149;75;2927804;-68
2023/07/10 06:32:24;;;;;;;6.55;5.95;;;;;;;23.66;94.25;98132.66;1223511;75;2919146;-69
2023/07/10 06:34:56;;;;;;;10.10;7.10;;;;;;;23.72;93.60;98131.19;1222856;75;2923596;-67
2023/07/10 06:37:29;;;;;;;6.55;5.85;;;;;;;23.87;92.49;98133.28;1223247;75;2940687;-64
2023/07/10 06:40:11;;;;;;;9.20;7.20;;;;;;;23.91;93.12;98128.09;1222081;75;2923323;-65
2023/07/10 06:42:45;;;;;;;9.05;6.50;;;;;;;23.98;93.73;98130.16;1223529;75;2928997;-68
2023/07/10 06:45:21;;;;;;;7.95;6.45;;;;;;;24.17;90.09;98131.84;1223761;75;2919800;-66
2023/07/10 06:47:53;;;;;;;10.10;7.55;;;;;;;24.22;92.09;98133.69;1223844;75;2925999;-66
2023/07/10 06:50:26;;;;;;;10.50;6.95;;;;;;;24.53;91.36;98139.34;1224531;75;2906278;-69
2023/07/10 06:52:59;;;;;;;10.95;7.90;;;;;;;24.21;91.79;98135.75;1224236;75;2929654;-65
2023/07/10 06:55:32;;;;;;;8.85;6.75;;;;;;;24.71;89.90;98134.66;1224724;75;2927576;-65
2023/07/10 06:58:04;;;;;;;12.00;7.90;;;;;;;24.68;87.11;98133.75;1223937;75;2932510;-66
2023/07/10 07:00:39;;;;;;;9.25;7.65;;;;;;;24.78;89.98;98133.91;1223737;75;2920809;-69
2023/07/10 07:03:12;;;;;;;8.20;7.40;;;;;;;25.14;89.40;98135.69;1223242;75;2923671;-68
2023/07/10 07:05:45;;;;;;;10.85;7.10;;;;;;;25.19;90.74;98123.56;1223045;75;2924766;-69
2023/07/10 07:08:18;;;;;;;11.00;8.75;;;;;;;25.22;88.27;98128.78;1222328;75;2951983;-69
2023/07/10 07:10:54;;;;;;;8.80;7.65;;;;;;;25.19;92.13;98140.38;1221088;75;2923231;-66
2023/07/10 07:13:27;;;;;;;9.20;7.20;;;;;;;25.41;93.50;98136.72;1222804;75;2929147;-66
2023/07/10 07:16:02;;;;;;;8.05;7.25;;;;;;;25.43;93.16;98134.13;1223781;75;2928897;-69
2023/07/10 07:18:35;;;;;;;10.05;8.25;;;;;;;25.03;94.08;98125.63;1223371;75;2921354;-68
2023/07/10 07:21:13;;;;;;;10.15;7.40;;;;;;;25.33;94.10;98124.06;1223376;75;2921268;-69
2023/07/10 07:23:45;;;;;;;9.10;7.80;;;;;;;25.40;90.19;98123.28;1224407;75;2925022;-68
2023/07/10 07:26:18;;;;;;;7.40;6.60;;;;;;;25.92;87.60;98112.38;1222899;75;2919841;-67
2023/07/10 07:28:52;;;;;;;13.75;7.35;;;;;;;25.94;85.41;98115.34;1222078;75;2961432;-69
2023/07/10 07:31:27;;;;;;;8.05;7.25;;;;;;;26.17;80.15;98114.44;1223187;75;2931820;-67
2023/07/10 07:33:59;;;;;;;7.60;6.60;;;;;;;26.40;83.53;98103.03;1223246;75;2923011;-68
2023/07/10 07:36:34;;;;;;;7.55;6.75;;;;;;;26.06;78.55;98099.56;1223563;75;2926355;-66
2023/07/10 07:39:08;;;;;;;7.75;6.55;;;;;;;26.42;79.30;98095.53;1222693;75;2922792;-67
2023/07/10 07:41:40;;;;;;;7.15;6.45;;;;;;;26.48;75.05;98096.06;1221690;75;2924597;-66
2023/07/10 07:44:13;;;;;;;9.15;7.15;;;;;;;26.67;77.93;98098.31;1222292;75;2922983;-69
2023/07/10 07:46:49;;;;;;;9.70;6.95;;;;;;;26.84;74.19;98105.25;1224056;75;2920106;-65
2023/07/10 07:49:23;;;;;;;6.70;6.00;;;;;;;27.09;72.68;98102.38;1223764;75;2921294;-67
2023/07/10 07:51:57;;;;;;;8.00;6.45;;;;;;;26.97;71.25;98099.31;1224151;75;2921543;-69
2023/07/10 07:54:29;;;;;;;8.40;6.10;;;;;;;27.09;70.87;98093.97;1223494;75;2926631;-67
2023/07/10 07:57:02;;;;;;;12.40;6.60;;;;;;;27.30;73.70;98096.34;1221471;75;2925103;-66
2023/07/10 07:59:34;;;;;;;7.25;6.15;;;;;;;27.15;78.19;98089.53;1222482;75;2920954;-66
2023/07/10 08:02:14;;;;;;;7.05;6.05;;;;;;;27.25;78.29;98100.91;1224554;75;2872693;-66
2023/07/10 08:04:46;;;;;;;7.65;6.85;;;;;;;27.25;80.85;98100.16;1223823;75;2935701;-65
2023/07/10 08:07:19;;;;;;;8.70;6.20;;;;;;;27.57;76.29;98096.38;1223697;75;2918725;-66
2023/07/10 08:09:51;;;;;;;10.65;6.95;;;;;;;27.58;76.12;98101.41;1224226;75;2924156;-66
2023/07/10 08:12:24;;;;;;;8.55;7.50;;;;;;;27.63;73.76;98102.47;1223654;75;2930731;-66
2023/07/10 08:14:57;;;;;;;11.20;8.30;;;;;;;27.59;76.07;98105.72;1225032;75;2928955;-67
2023/07/10 08:17:32;;;;;;;8.15;7.20;;;;;;;27.94;76.16;98100.00;1224389;75;2917710;-68
2023/07/10 08:20:07;;;;;;;8.00;6.25;;;;;;;28.26;74.29;98089.72;1224600;75;2917874;-68
2023/07/10 08:22:40;;;;;;;10.00;6.95;;;;;;;28.34;74.60;98098.06;1223671;75;2899106;-68
2023/07/10 08:25:13;;;;;;;6.80;6.10;;;;;;;28.41;73.78;98103.56;1223811;75;2921380;-70
2023/07/10 08:27:45;;;;;;;9.25;6.20;;;;;;;28.55;71.54;98092.66;1224162;75;2924122;-67
2023/07/10 08:30:19;;;;;;;8.55;6.60;;;;;;;28.66;73.21;98091.31;1224279;75;2924854;-70
2023/07/10 08:32:54;;;;;;;6.90;6.20;;;;;;;28.80;73.80;98095.19;1223848;75;2925380;-67
2023/07/10 08:35:27;;;;;;;6.15;5.55;;;;;;;29.07;67.88;98080.97;1223975;75;2925055;-68
2023/07/10 08:37:59;;;;;;;6.20;5.60;;;;;;;29.22;68.01;98077.09;1223907;75;2928371;-68
2023/07/10 08:40:36;;;;;;;7.30;6.15;;;;;;;29.29;69.20;98073.38;1224013;75;2937512;-67
2023/07/10 08:43:31;;;;;;;8.80;6.90;;;;;;;29.19;66.33;98078.31;1223826;75;2923399;-68
2023/07/10 08:46:10;;;;;;;6.95;6.25;;;;;;;29.27;61.28;98076.09;1224436;75;2920626;-66
2023/07/10 08:48:53;;;;;;;6.85;5.60;;;;;;;29.29;61.04;98069.84;1223832;75;2927844;-67
2023/07/10 08:51:45;;;;;;;9.60;6.40;;;;;;;29.71;59.64;98074.97;1223838;75;2923331;-66
2023/07/10 08:54:19;;;;;;;6.85;5.70;;;;;;;29.77;60.03;98060.53;1222361;75;2921015;-65
2023/07/10 08:57:01;;;;;;;5.50;4.90;;;;;;;30.15;60.24;98061.69;1222852;75;2926982;-67
2023/07/10 08:59:49;;;;;;;7.60;6.20;;;;;;;30.17;61.00;98059.00;1223027;75;2926350;-66
2023/07/10 09:02:40;;;;;;;7.80;6.00;;;;;;;30.63;60.56;98059.94;1223467;75;2928062;-66
2023/07/10 09:05:23;;;;;;;10.45;5.95;;;;;;;30.31;57.98;98059.28;1223239;75;2924617;-69
2023/07/10 09:07:57;;;;;;;7.90;5.40;;;;;;;30.85;60.06;98050.13;1215788;75;3247441;-70
2023/07/10 09:10:39;;;;;;;7.80;6.70;;;;;;;30.41;58.13;98051.47;1223967;75;2932868;-69
2023/07/10 09:13:21;;;;;;;8.15;5.50;;;;;;;30.27;59.14;98048.44;1224154;75;2925237;-70
2023/07/10 09:15:57;;;;;;;8.90;6.00;;;;;;;30.52;59.22;98055.69;1223968;75;2925920;-68
2023/07/10 09:18:50;;;;;;;8.25;6.65;;;;;;;30.60;58.01;98059.06;1223900;75;2911293;-68
2023/07/10 09:21:32;;;;;;;7.00;5.70;;;;;;;31.12;59.02;98057.47;1223951;67;2932356;-69
2023/07/10 09:24:07;;;;;;;8.80;5.90;;;;;;;30.70;59.08;98054.09;1224623;75;2921801;-66
2023/07/10 09:26:40;;;;;;;6.05;5.40;;;;;;;31.04;58.39;98059.78;1192396;75;5445926;-67
2023/07/10 09:29:34;;;;;;;8.30;6.10;;;;;;;30.89;58.54;98058.13;1224201;75;2929461;-67
2023/07/10 09:32:14;;;;;;;7.40;6.30;;;;;;;30.96;58.28;98055.09;1223077;75;2937561;-65
2023/07/10 09:34:53;;;;;;;9.20;6.40;;;;;;;31.58;56.64;98054.06;1223686;75;2923251;-67
2023/07/10 09:37:37;;;;;;;7.40;6.10;;;;;;;31.30;56.68;98047.31;1223197;75;2927581;-70
2023/07/10 09:40:38;;;;;;;7.30;5.40;;;;;;;31.66;57.01;98045.34;1224135;75;2918895;-69
2023/07/10 09:43:19;;;;;;;8.60;5.95;;;;;;;31.53;55.73;98031.78;1220036;75;3024706;-66
2023/07/10 09:45:54;;;;;;;7.35;5.60;;;;;;;31.18;54.36;98040.91;1221943;75;2923753;-68
2023/07/10 09:48:33;;;;;;;6.30;5.25;;;;;;;31.82;54.43;98037.06;1222744;75;2925608;-68
2023/07/10 09:51:08;;;;;;;7.65;5.90;;;;;;;31.54;54.92;98038.91;1223932;75;2922316;-69
2023/07/10 09:53:48;;;;;;;6.35;5.55;;;;;;;31.74;53.50;98045.09;1220947;75;3039364;-69
2023/07/10 09:56:28;;;;;;;6.45;5.70;;;;;;;31.35;54.05;98040.56;1223911;75;2928091;-70
2023/07/10 09:59:01;;;;;;;9.00;5.65;;;;;;;31.76;53.51;98031.06;1223422;75;2925275;-70
2023/07/10 10:01:37;;;;;;;6.55;5.10;;;;;;;31.90;51.83;98037.59;1223199;75;2925198;-68
2023/07/10 10:04:09;;;;;;;9.00;5.05;;;;;;;31.77;50.50;98027.59;1223903;75;2923511;-67
2023/07/10 10:06:45;;;;;;;5.80;4.85;;;;;;;32.34;51.49;98023.88;1224093;75;2925772;-69
2023/07/10 10:09:29;;;;;;;5.35;4.65;;;;;;;32.42;49.31;98021.53;1223836;75;2926527;-67
2023/07/10 10:12:13;;;;;;;6.90;5.65;;;;;;;31.77;50.80;98019.09;1224241;75;2925059;-67
2023/07/10 10:15:00;;;;;;;6.45;5.15;;;;;;;32.08;52.36;98020.97;1224970;75;2930861;-71
2023/07/10 10:17:40;;;;;;;5.90;4.40;;;;;;;32.58;50.46;98022.50;1224576;75;2934397;-69
2023/07/10 10:20:24;;;;;;;6.65;5.40;;;;;;;31.96;50.22;98014.56;1223529;75;2925336;-69
2023/07/10 10:22:57;;;;;;;6.20;5.30;;;;;;;32.53;49.41;98014.38;1224398;75;2929197;-68
2023/07/10 10:25:42;;;;;;;6.45;4.90;;;;;;;32.82;48.77;98013.91;1224434;75;2917734;-71
2023/07/10 10:28:29;;;;;;;6.45;5.00;;;;;;;32.85;51.44;98006.97;1223760;75;2926095;-67
2023/07/10 10:31:11;;;;;;;7.50;5.60;;;;;;;32.73;50.92;98004.19;1224315;75;2926268;-71
2023/07/10 10:33:56;;;;;;;7.90;5.10;;;;;;;32.54;50.50;97999.56;1223703;75;2930311;-69
2023/07/10 10:36:42;;;;;;;6.40;5.20;;;;;;;32.71;52.46;97994.84;1224407;75;2931296;-66
2023/07/10 10:39:26;;;;;;;7.00;5.50;;;;;;;33.08;51.99;98001.22;1224280;75;2932331;-70
2023/07/10 10:42:12;;;;;;;5.75;4.50;;;;;;;33.04;44.62;97992.47;1224453;75;2925932;-71
2023/07/10 10:44:55;;;;;;;7.75;4.70;;;;;;;33.29;46.66;98000.25;1223785;75;2922345;-67
2023/07/10 10:47:41;;;;;;;7.65;5.65;;;;;;;33.07;48.00;97999.00;1224219;75;2924653;-69
2023/07/10 10:50:39;;;;;;;6.50;5.25;;;;;;;33.52;46.78;97990.06;1223913;75;2931479;-67
2023/07/10 10:53:29;;;;;;;7.90;4.90;;;;;;;33.48;46.14;97984.19;1223994;75;2919823;-70
2023/07/10 10:56:19;;;;;;;6.80;5.20;;;;;;;33.31;49.03;97991.84;1223953;75;2920167;-70
2023/07/10 10:59:21;;;;;;;5.90;5.10;;;;;;;33.64;49.48;97987.91;1223218;75;2924740;-68
2023/07/10 11:02:02;;;;;;;6.60;4.80;;;;;;;33.84;46.16;97976.13;1223355;75;2923784;-68
2023/07/10 11:04:39;;;;;;;5.55;4.60;;;;;;;33.94;45.90;97968.88;1223443;75;2919910;-70
2023/07/10 11:07:17;;;;;;;7.40;5.30;;;;;;;34.08;44.26;97973.81;1223924;75;2919405;-68
2023/07/10 11:09:55;;;;;;;6.85;5.00;;;;;;;33.62;44.32;97970.75;1223453;75;2928391;-71
2023/07/10 11:12:31;;;;;;;5.60;4.50;;;;;;;33.45;39.16;97962.72;1223329;75;2934132;-70
2023/07/10 11:15:18;;;;;;;7.45;4.70;;;;;;;34.20;39.03;97963.06;1224098;75;2924751;-69
2023/07/10 11:17:55;;;;;;;5.80;4.65;;;;;;;33.82;43.13;97950.47;1224125;75;2934178;-71
2023/07/10 11:20:29;;;;;;;;;;;;;;;34.00;42.13;97947.84;1225242;75;2922554;-68
2023/07/10 11:23:05;;;;;;;6.30;4.20;;;;;;;34.08;44.65;97949.03;1223813;75;2924813;-68
2023/07/10 11:25:42;;;;;;;5.60;4.65;;;;;;;34.62;43.71;97943.84;1223527;75;2921759;-68
2023/07/10 11:28:24;;;;;;;6.10;4.20;;;;;;;34.45;42.68;97939.44;1223243;75;2923006;-67
2023/07/10 11:31:41;;;;;;;6.15;4.75;;;;;;;33.79;42.78;97931.84;1223877;75;2918631;-68
2023/07/10 11:34:56;;;;;;;6.10;4.25;;;;;;;34.35;41.98;97936.13;1223574;75;2926684;-68
2023/07/10 11:38:20;;;;;;;4.95;4.20;;;;;;;34.50;40.80;97923.31;1224112;75;2920235;-68
2023/07/10 11:40:55;;;;;;;5.50;4.00;;;;;;;34.72;38.49;97920.84;1221490;75;2968951;-66
2023/07/10 11:43:58;;;;;;;5.18;3.74;;;;;;;34.92;38.45;97923.88;1198444;75;5858255;-65
2023/07/10 11:46:38;;;;;;;4.50;4.00;;;;;;;35.03;39.14;97919.41;1223594;75;2937645;-69
2023/07/10 11:49:21;;;;;;;4.55;3.50;;;;;;;35.02;36.69;97917.94;1224099;75;2928886;-68
2023/07/10 11:52:31;;;;;;;5.65;4.05;;;;;;;34.77;36.90;97920.38;1223562;75;2923418;-70
2023/07/10 11:55:28;;;;;;;5.00;3.70;;;;;;;34.88;37.48;97918.75;1222713;75;2944413;-71